sensor_id;sensor_type;location;lat;lon;timestamp;pressure;altitude;pressure_sealevel;temperature;humidity
32298;BME280;18782;48.984;8.548;2023-02-26T00:02:04;99642.38;;;1.71;64.55
32298;BME280;18782;48.984;8.548;2023-02-26T00:04:31;99637.78;;;1.64;65.06
32298;BME280;18782;48.984;8.548;2023-02-26T00:06:59;99644.09;;;1.56;65.20
32298;BME280;18782;48.984;8.548;2023-02-26T00:09:27;99644.22;;;1.43;64.24
32298;BME280;18782;48.984;8.548;2023-02-26T00:11:55;99633.63;;;1.35;64.88
32298;BME280;18782;48.984;8.548;2023-02-26T00:14:24;99636.53;;;1.26;65.56
32298;BME280;18782;48.984;8.548;2023-02-26T00:17:04;99637.94;;;1.21;66.21
32298;BME280;18782;48.984;8.548;2023-02-26T00:19:34;99643.63;;;1.17;66.82
32298;BME280;18782;48.984;8.548;2023-02-26T00:22:02;99636.88;;;1.03;67.79
32298;BME280;18782;48.984;8.548;2023-02-26T00:24:30;99627.00;;;0.93;67.84
32298;BME280;18782;48.984;8.548;2023-02-26T00:26:58;99632.53;;;0.86;68.30
32298;BME280;18782;48.984;8.548;2023-02-26T00:29:27;99629.81;;;0.83;68.45
32298;BME280;18782;48.984;8.548;2023-02-26T00:31:55;99638.03;;;0.78;69.55
32298;BME280;18782;48.984;8.548;2023-02-26T00:34:24;99642.38;;;0.66;69.29
32298;BME280;18782;48.984;8.548;2023-02-26T00:37:06;99635.00;;;0.56;69.82
32298;BME280;18782;48.984;8.548;2023-02-26T00:39:45;99634.47;;;0.47;70.25
32298;BME280;18782;48.984;8.548;2023-02-26T00:42:17;99642.34;;;0.37;70.32
32298;BME280;18782;48.984;8.548;2023-02-26T00:44:46;99645.25;;;0.30;70.42
32298;BME280;18782;48.984;8.548;2023-02-26T00:47:24;99646.47;;;0.21;70.83
32298;BME280;18782;48.984;8.548;2023-02-26T00:50:03;99646.97;;;0.16;71.32
32298;BME280;18782;48.984;8.548;2023-02-26T00:52:38;99644.34;;;0.14;72.42
32298;BME280;18782;48.984;8.548;2023-02-26T00:55:09;99646.28;;;0.05;73.33
32298;BME280;18782;48.984;8.548;2023-02-26T00:57:37;99644.28;;;-0.01;73.40
32298;BME280;18782;48.984;8.548;2023-02-26T01:00:07;99646.53;;;-0.05;73.35
32298;BME280;18782;48.984;8.548;2023-02-26T01:02:37;99643.44;;;-0.14;73.48
32298;BME280;18782;48.984;8.548;2023-02-26T01:05:06;99648.59;;;-0.13;74.46
32298;BME280;18782;48.984;8.548;2023-02-26T01:07:42;99649.28;;;-0.15;74.24
32298;BME280;18782;48.984;8.548;2023-02-26T01:10:12;99644.31;;;-0.14;75.40
32298;BME280;18782;48.984;8.548;2023-02-26T01:12:40;99653.72;;;-0.11;75.82
32298;BME280;18782;48.984;8.548;2023-02-26T01:15:10;99655.38;;;-0.12;74.05
32298;BME280;18782;48.984;8.548;2023-02-26T01:17:44;99646.16;;;-0.11;73.95
32298;BME280;18782;48.984;8.548;2023-02-26T01:20:17;99647.34;;;-0.19;75.01
32298;BME280;18782;48.984;8.548;2023-02-26T01:22:51;99653.06;;;-0.22;75.19
32298;BME280;18782;48.984;8.548;2023-02-26T01:25:24;99646.75;;;-0.29;74.95
32298;BME280;18782;48.984;8.548;2023-02-26T01:27:53;99653.00;;;-0.37;76.10
32298;BME280;18782;48.984;8.548;2023-02-26T01:30:25;99647.38;;;-0.46;75.36
32298;BME280;18782;48.984;8.548;2023-02-26T01:32:58;99642.69;;;-0.53;75.14
32298;BME280;18782;48.984;8.548;2023-02-26T01:35:39;99653.41;;;-0.57;76.42
32298;BME280;18782;48.984;8.548;2023-02-26T01:38:19;99651.34;;;-0.63;75.35
32298;BME280;18782;48.984;8.548;2023-02-26T01:41:03;99650.22;;;-0.68;74.65
32298;BME280;18782;48.984;8.548;2023-02-26T01:43:38;99657.66;;;-0.69;75.05
32298;BME280;18782;48.984;8.548;2023-02-26T01:46:15;99662.84;;;-0.68;73.92
32298;BME280;18782;48.984;8.548;2023-02-26T01:48:48;99660.97;;;-0.70;74.44
32298;BME280;18782;48.984;8.548;2023-02-26T01:51:17;99667.59;;;-0.72;74.98
32298;BME280;18782;48.984;8.548;2023-02-26T01:53:46;99660.88;;;-0.72;75.54
32298;BME280;18782;48.984;8.548;2023-02-26T01:56:15;99661.56;;;-0.74;75.51
32298;BME280;18782;48.984;8.548;2023-02-26T01:58:45;99658.84;;;-0.77;75.74
32298;BME280;18782;48.984;8.548;2023-02-26T02:01:15;99658.94;;;-0.76;75.65
32298;BME280;18782;48.984;8.548;2023-02-26T02:03:44;99655.72;;;-0.73;76.02
32298;BME280;18782;48.984;8.548;2023-02-26T02:06:17;99659.41;;;-0.68;76.59
32298;BME280;18782;48.984;8.548;2023-02-26T02:08:45;99657.88;;;-0.66;76.49
32298;BME280;18782;48.984;8.548;2023-02-26T02:11:13;99668.16;;;-0.63;76.26
32298;BME280;18782;48.984;8.548;2023-02-26T02:13:54;99661.38;;;-0.64;76.94
32298;BME280;18782;48.984;8.548;2023-02-26T02:16:31;99666.41;;;-0.64;75.33
32298;BME280;18782;48.984;8.548;2023-02-26T02:19:13;99659.63;;;-0.65;76.25
32298;BME280;18782;48.984;8.548;2023-02-26T02:21:52;99667.13;;;-0.67;76.61
32298;BME280;18782;48.984;8.548;2023-02-26T02:24:32;99660.97;;;-0.70;75.57
32298;BME280;18782;48.984;8.548;2023-02-26T02:27:07;99655.72;;;-0.73;75.78
32298;BME280;18782;48.984;8.548;2023-02-26T02:32:42;99667.66;;;-0.84;76.51
32298;BME280;18782;48.984;8.548;2023-02-26T02:35:15;99670.56;;;-0.91;76.97
32298;BME280;18782;48.984;8.548;2023-02-26T02:37:47;99672.63;;;-0.99;76.00
32298;BME280;18782;48.984;8.548;2023-02-26T02:40:21;99679.19;;;-1.01;76.02
32298;BME280;18782;48.984;8.548;2023-02-26T02:42:54;99678.81;;;-1.07;77.92
32298;BME280;18782;48.984;8.548;2023-02-26T02:45:26;99683.66;;;-1.10;79.30
32298;BME280;18782;48.984;8.548;2023-02-26T02:48:02;99675.09;;;-1.12;79.08
32298;BME280;18782;48.984;8.548;2023-02-26T02:50:36;99680.72;;;-1.16;78.26
32298;BME280;18782;48.984;8.548;2023-02-26T02:53:08;99678.00;;;-1.19;78.62
32298;BME280;18782;48.984;8.548;2023-02-26T02:55:43;99678.56;;;-1.23;79.35
32298;BME280;18782;48.984;8.548;2023-02-26T02:58:16;99675.28;;;-1.22;78.23
32298;BME280;18782;48.984;8.548;2023-02-26T03:00:47;99679.34;;;-1.24;79.07
32298;BME280;18782;48.984;8.548;2023-02-26T03:03:23;99678.50;;;-1.37;78.41
32298;BME280;18782;48.984;8.548;2023-02-26T03:05:54;99679.84;;;-1.42;79.08
32298;BME280;18782;48.984;8.548;2023-02-26T03:08:25;99689.75;;;-1.45;79.70
32298;BME280;18782;48.984;8.548;2023-02-26T03:10:54;99687.03;;;-1.48;79.10
32298;BME280;18782;48.984;8.548;2023-02-26T03:13:23;99686.06;;;-1.50;79.67
32298;BME280;18782;48.984;8.548;2023-02-26T03:16:15;99703.50;;;-1.53;79.58
32298;BME280;18782;48.984;8.548;2023-02-26T03:18:53;99702.72;;;-1.52;79.50
32298;BME280;18782;48.984;8.548;2023-02-26T03:21:28;99701.84;;;-1.52;80.48
32298;BME280;18782;48.984;8.548;2023-02-26T03:24:01;99708.78;;;-1.50;81.34
32298;BME280;18782;48.984;8.548;2023-02-26T03:26:39;99706.44;;;-1.47;80.70
32298;BME280;18782;48.984;8.548;2023-02-26T03:29:17;99712.69;;;-1.42;81.01
32298;BME280;18782;48.984;8.548;2023-02-26T03:31:55;99715.66;;;-1.47;80.99
32298;BME280;18782;48.984;8.548;2023-02-26T03:34:29;99714.00;;;-1.47;80.84
32298;BME280;18782;48.984;8.548;2023-02-26T03:37:04;99713.25;;;-1.46;80.18
32298;BME280;18782;48.984;8.548;2023-02-26T03:39:38;99724.00;;;-1.48;82.06
32298;BME280;18782;48.984;8.548;2023-02-26T03:42:10;99729.63;;;-1.52;81.32
32298;BME280;18782;48.984;8.548;2023-02-26T03:45:10;99733.06;;;-1.64;81.10
32298;BME280;18782;48.984;8.548;2023-02-26T03:47:41;99735.06;;;-1.71;81.36
32298;BME280;18782;48.984;8.548;2023-02-26T03:50:16;99733.75;;;-1.78;80.96
32298;BME280;18782;48.984;8.548;2023-02-26T03:52:57;99731.47;;;-1.87;82.92
32298;BME280;18782;48.984;8.548;2023-02-26T03:55:44;99736.63;;;-1.85;82.65
32298;BME280;18782;48.984;8.548;2023-02-26T03:58:31;99742.13;;;-1.91;82.75
32298;BME280;18782;48.984;8.548;2023-02-26T04:01:33;99748.47;;;-1.84;83.52
32298;BME280;18782;48.984;8.548;2023-02-26T04:04:05;99742.53;;;-1.85;82.52
32298;BME280;18782;48.984;8.548;2023-02-26T04:06:37;99751.13;;;-1.82;83.68
32298;BME280;18782;48.984;8.548;2023-02-26T04:09:05;99751.31;;;-1.79;82.85
32298;BME280;18782;48.984;8.548;2023-02-26T04:11:36;99754.59;;;-1.80;81.90
32298;BME280;18782;48.984;8.548;2023-02-26T04:14:04;99752.19;;;-1.79;81.77
32298;BME280;18782;48.984;8.548;2023-02-26T04:16:37;99752.00;;;-1.82;82.04
32298;BME280;18782;48.984;8.548;2023-02-26T04:19:05;99758.78;;;-1.81;82.20
32298;BME280;18782;48.984;8.548;2023-02-26T04:21:32;99757.69;;;-1.85;82.75
32298;BME280;18782;48.984;8.548;2023-02-26T04:24:01;99754.84;;;-1.89;82.66
32298;BME280;18782;48.984;8.548;2023-02-26T04:26:29;99760.31;;;-1.95;83.49
32298;BME280;18782;48.984;8.548;2023-02-26T04:28:57;99759.91;;;-2.01;82.88
32298;BME280;18782;48.984;8.548;2023-02-26T04:31:25;99752.22;;;-2.02;83.64
32298;BME280;18782;48.984;8.548;2023-02-26T04:33:53;99754.09;;;-2.00;83.82
32298;BME280;18782;48.984;8.548;2023-02-26T04:40:35;99764.94;;;-2.01;83.45
32298;BME280;18782;48.984;8.548;2023-02-26T04:43:03;99763.19;;;-2.02;82.30
32298;BME280;18782;48.984;8.548;2023-02-26T04:45:37;99776.78;;;-2.00;83.62
32298;BME280;18782;48.984;8.548;2023-02-26T04:48:04;99778.22;;;-2.03;83.00
32298;BME280;18782;48.984;8.548;2023-02-26T04:50:32;99781.41;;;-2.06;82.39
32298;BME280;18782;48.984;8.548;2023-02-26T04:52:59;99786.44;;;-2.06;83.58
32298;BME280;18782;48.984;8.548;2023-02-26T04:55:27;99788.72;;;-2.09;82.84
32298;BME280;18782;48.984;8.548;2023-02-26T04:57:56;99785.78;;;-2.15;83.01
32298;BME280;18782;48.984;8.548;2023-02-26T05:00:24;99792.13;;;-2.20;83.69
32298;BME280;18782;48.984;8.548;2023-02-26T05:02:52;99783.59;;;-2.22;85.11
32298;BME280;18782;48.984;8.548;2023-02-26T05:05:20;99793.44;;;-2.25;85.74
32298;BME280;18782;48.984;8.548;2023-02-26T05:07:48;99787.31;;;-2.29;85.55
32298;BME280;18782;48.984;8.548;2023-02-26T05:10:15;99790.16;;;-2.36;84.43
32298;BME280;18782;48.984;8.548;2023-02-26T05:12:44;99790.91;;;-2.49;85.53
32298;BME280;18782;48.984;8.548;2023-02-26T05:15:15;99798.25;;;-2.52;85.68
32298;BME280;18782;48.984;8.548;2023-02-26T05:17:42;99800.41;;;-2.56;85.25
32298;BME280;18782;48.984;8.548;2023-02-26T05:20:10;99804.59;;;-2.57;86.05
32298;BME280;18782;48.984;8.548;2023-02-26T05:22:38;99801.84;;;-2.60;86.19
32298;BME280;18782;48.984;8.548;2023-02-26T05:25:07;99804.38;;;-2.60;85.99
32298;BME280;18782;48.984;8.548;2023-02-26T05:27:35;99800.63;;;-2.65;85.55
32298;BME280;18782;48.984;8.548;2023-02-26T05:30:03;99799.75;;;-2.66;85.60
32298;BME280;18782;48.984;8.548;2023-02-26T05:32:34;99814.22;;;-2.63;87.13
32298;BME280;18782;48.984;8.548;2023-02-26T05:35:02;99814.00;;;-2.66;86.17
32298;BME280;18782;48.984;8.548;2023-02-26T05:37:30;99810.19;;;-2.61;86.89
32298;BME280;18782;48.984;8.548;2023-02-26T05:39:58;99811.28;;;-2.57;86.49
32298;BME280;18782;48.984;8.548;2023-02-26T05:42:41;99817.19;;;-2.57;86.42
32298;BME280;18782;48.984;8.548;2023-02-26T05:45:10;99814.91;;;-2.54;85.58
32298;BME280;18782;48.984;8.548;2023-02-26T05:47:39;99817.41;;;-2.54;86.44
32298;BME280;18782;48.984;8.548;2023-02-26T05:50:08;99831.78;;;-2.53;86.04
32298;BME280;18782;48.984;8.548;2023-02-26T05:52:35;99826.72;;;-2.53;86.11
32298;BME280;18782;48.984;8.548;2023-02-26T05:55:04;99831.78;;;-2.53;86.04
32298;BME280;18782;48.984;8.548;2023-02-26T05:57:32;99836.72;;;-2.54;86.51
32298;BME280;18782;48.984;8.548;2023-02-26T06:00:00;99834.38;;;-2.63;86.45
32298;BME280;18782;48.984;8.548;2023-02-26T06:02:39;99842.25;;;-2.70;86.55
32298;BME280;18782;48.984;8.548;2023-02-26T06:05:08;99840.50;;;-2.71;86.61
32298;BME280;18782;48.984;8.548;2023-02-26T06:07:35;99849.22;;;-2.78;86.54
32298;BME280;18782;48.984;8.548;2023-02-26T06:10:04;99851.63;;;-2.79;87.37
32298;BME280;18782;48.984;8.548;2023-02-26T06:12:31;99861.25;;;-2.85;87.02
32298;BME280;18782;48.984;8.548;2023-02-26T06:15:02;99857.09;;;-2.85;87.84
32298;BME280;18782;48.984;8.548;2023-02-26T06:17:30;99860.47;;;-2.84;86.71
32298;BME280;18782;48.984;8.548;2023-02-26T06:19:59;99870.81;;;-2.81;88.12
32298;BME280;18782;48.984;8.548;2023-02-26T06:22:28;99871.78;;;-2.79;88.02
32298;BME280;18782;48.984;8.548;2023-02-26T06:24:55;99872.13;;;-2.75;87.26
32298;BME280;18782;48.984;8.548;2023-02-26T06:27:24;99876.75;;;-2.69;87.08
32298;BME280;18782;48.984;8.548;2023-02-26T06:29:52;99884.78;;;-2.63;86.99
32298;BME280;18782;48.984;8.548;2023-02-26T06:32:19;99890.69;;;-2.63;86.61
32298;BME280;18782;48.984;8.548;2023-02-26T06:34:47;99895.97;;;-2.59;87.37
32298;BME280;18782;48.984;8.548;2023-02-26T06:37:16;99901.50;;;-2.42;90.98
32298;BME280;18782;48.984;8.548;2023-02-26T06:39:43;99910.72;;;-2.30;91.73
32298;BME280;18782;48.984;8.548;2023-02-26T06:42:11;99911.06;;;-2.26;89.84
32298;BME280;18782;48.984;8.548;2023-02-26T06:44:39;99916.00;;;-2.27;88.24
32298;BME280;18782;48.984;8.548;2023-02-26T06:47:06;99914.72;;;-2.22;87.74
32298;BME280;18782;48.984;8.548;2023-02-26T06:49:34;99920.31;;;-2.15;88.69
32298;BME280;18782;48.984;8.548;2023-02-26T06:52:01;99934.03;;;-2.11;87.47
32298;BME280;18782;48.984;8.548;2023-02-26T06:54:30;99927.69;;;-2.06;86.28
32298;BME280;18782;48.984;8.548;2023-02-26T06:56:58;99928.66;;;-2.04;85.73
32298;BME280;18782;48.984;8.548;2023-02-26T06:59:27;99933.16;;;-2.00;85.87
32298;BME280;18782;48.984;8.548;2023-02-26T07:01:55;99943.50;;;-1.97;83.90
32298;BME280;18782;48.984;8.548;2023-02-26T07:04:23;99938.66;;;-1.94;83.21
32298;BME280;18782;48.984;8.548;2023-02-26T07:06:51;99940.66;;;-1.90;82.83
32298;BME280;18782;48.984;8.548;2023-02-26T07:09:18;99949.66;;;-1.81;81.55
32298;BME280;18782;48.984;8.548;2023-02-26T07:11:47;99949.34;;;-1.74;81.74
32298;BME280;18782;48.984;8.548;2023-02-26T07:14:15;99954.28;;;-1.64;81.50
32298;BME280;18782;48.984;8.548;2023-02-26T07:16:42;99961.75;;;-1.54;81.18
32298;BME280;18782;48.984;8.548;2023-02-26T07:19:10;99963.72;;;-1.50;81.01
32298;BME280;18782;48.984;8.548;2023-02-26T07:21:38;99964.38;;;-1.52;80.66
32298;BME280;18782;48.984;8.548;2023-02-26T07:24:06;99968.13;;;-1.59;80.86
32298;BME280;18782;48.984;8.548;2023-02-26T07:26:34;99977.00;;;-1.52;80.98
32298;BME280;18782;48.984;8.548;2023-02-26T07:29:03;99976.69;;;-1.45;80.19
32298;BME280;18782;48.984;8.548;2023-02-26T07:31:31;99974.38;;;-1.42;79.85
32298;BME280;18782;48.984;8.548;2023-02-26T07:33:59;99986.56;;;-1.37;80.00
32298;BME280;18782;48.984;8.548;2023-02-26T07:36:27;99984.81;;;-1.38;80.67
32298;BME280;18782;48.984;8.548;2023-02-26T07:38:54;99988.09;;;-1.39;79.74
32298;BME280;18782;48.984;8.548;2023-02-26T07:41:22;99995.13;;;-1.35;80.31
32298;BME280;18782;48.984;8.548;2023-02-26T07:43:49;99987.56;;;-1.23;80.50
32298;BME280;18782;48.984;8.548;2023-02-26T07:46:18;99991.63;;;-1.13;80.31
32298;BME280;18782;48.984;8.548;2023-02-26T07:48:46;99998.84;;;-1.06;79.45
32298;BME280;18782;48.984;8.548;2023-02-26T07:51:13;99996.19;;;-0.96;79.01
32298;BME280;18782;48.984;8.548;2023-02-26T07:53:41;99996.84;;;-0.87;78.06
32298;BME280;18782;48.984;8.548;2023-02-26T07:56:09;100001.00;;;-0.75;77.93
32298;BME280;18782;48.984;8.548;2023-02-26T07:58:36;100000.75;;;-0.55;78.66
32298;BME280;18782;48.984;8.548;2023-02-26T08:01:04;100003.50;;;-0.52;76.61
32298;BME280;18782;48.984;8.548;2023-02-26T08:03:33;99998.06;;;-0.45;76.87
32298;BME280;18782;48.984;8.548;2023-02-26T08:06:01;100004.66;;;-0.35;76.05
32298;BME280;18782;48.984;8.548;2023-02-26T08:08:30;100007.91;;;-0.24;75.33
32298;BME280;18782;48.984;8.548;2023-02-26T08:10:58;99997.00;;;-0.23;74.31
32298;BME280;18782;48.984;8.548;2023-02-26T08:13:26;100001.28;;;-0.22;74.99
32298;BME280;18782;48.984;8.548;2023-02-26T08:15:54;100003.47;;;-0.15;75.27
32298;BME280;18782;48.984;8.548;2023-02-26T08:18:22;99993.06;;;-0.07;75.01
32298;BME280;18782;48.984;8.548;2023-02-26T08:20:51;100000.25;;;0.12;74.20
32298;BME280;18782;48.984;8.548;2023-02-26T08:23:18;100004.56;;;0.27;73.96
32298;BME280;18782;48.984;8.548;2023-02-26T08:25:46;99989.38;;;0.40;73.58
32298;BME280;18782;48.984;8.548;2023-02-26T08:28:14;100001.66;;;0.47;72.61
32298;BME280;18782;48.984;8.548;2023-02-26T08:30:41;99993.41;;;0.49;72.40
32298;BME280;18782;48.984;8.548;2023-02-26T08:33:09;99990.00;;;0.49;72.93
32298;BME280;18782;48.984;8.548;2023-02-26T08:35:37;100005.09;;;0.61;73.17
32298;BME280;18782;48.984;8.548;2023-02-26T08:38:06;100003.81;;;0.67;72.86
32298;BME280;18782;48.984;8.548;2023-02-26T08:40:34;100009.88;;;0.83;71.55
32298;BME280;18782;48.984;8.548;2023-02-26T08:43:02;100012.22;;;0.93;69.91
32298;BME280;18782;48.984;8.548;2023-02-26T08:45:29;100014.06;;;1.09;70.97
32298;BME280;18782;48.984;8.548;2023-02-26T08:47:57;100021.38;;;1.17;69.76
32298;BME280;18782;48.984;8.548;2023-02-26T08:50:26;100022.91;;;1.28;69.19
32298;BME280;18782;48.984;8.548;2023-02-26T08:52:54;100025.03;;;1.36;69.42
32298;BME280;18782;48.984;8.548;2023-02-26T08:55:23;100036.44;;;1.55;68.81
32298;BME280;18782;48.984;8.548;2023-02-26T08:57:51;100038.22;;;1.71;67.43
32298;BME280;18782;48.984;8.548;2023-02-26T09:00:19;100037.84;;;1.78;67.06
32298;BME280;18782;48.984;8.548;2023-02-26T09:02:47;100042.16;;;1.66;66.88
32298;BME280;18782;48.984;8.548;2023-02-26T09:05:16;100044.31;;;1.60;67.33
32298;BME280;18782;48.984;8.548;2023-02-26T09:07:44;100043.38;;;1.58;68.41
32298;BME280;18782;48.984;8.548;2023-02-26T09:10:13;100041.66;;;1.72;68.45
32298;BME280;18782;48.984;8.548;2023-02-26T09:12:42;100045.03;;;1.86;67.72
32298;BME280;18782;48.984;8.548;2023-02-26T09:15:10;100052.41;;;1.96;67.25
32298;BME280;18782;48.984;8.548;2023-02-26T09:17:40;100043.84;;;1.94;66.99
32298;BME280;18782;48.984;8.548;2023-02-26T09:20:08;100050.84;;;1.98;67.16
32298;BME280;18782;48.984;8.548;2023-02-26T09:22:36;100044.22;;;2.00;66.99
32298;BME280;18782;48.984;8.548;2023-02-26T09:25:04;100052.38;;;2.09;66.39
32298;BME280;18782;48.984;8.548;2023-02-26T09:27:32;100052.66;;;2.28;65.73
32298;BME280;18782;48.984;8.548;2023-02-26T09:30:02;100057.50;;;2.39;64.60
32298;BME280;18782;48.984;8.548;2023-02-26T09:32:30;100058.22;;;2.51;63.70
32298;BME280;18782;48.984;8.548;2023-02-26T09:34:58;100058.66;;;2.73;63.10
32298;BME280;18782;48.984;8.548;2023-02-26T09:37:25;100061.00;;;3.00;61.77
32298;BME280;18782;48.984;8.548;2023-02-26T09:39:53;100059.31;;;3.15;60.99
32298;BME280;18782;48.984;8.548;2023-02-26T09:42:31;100067.09;;;3.18;60.66
32298;BME280;18782;48.984;8.548;2023-02-26T09:45:06;100069.84;;;3.06;60.10
32298;BME280;18782;48.984;8.548;2023-02-26T09:47:39;100079.16;;;3.06;59.47
32298;BME280;18782;48.984;8.548;2023-02-26T09:50:17;100072.94;;;3.01;60.57
32298;BME280;18782;48.984;8.548;2023-02-26T09:52:49;100071.63;;;2.93;60.45
32298;BME280;18782;48.984;8.548;2023-02-26T09:55:25;100084.06;;;2.58;61.09
32298;BME280;18782;48.984;8.548;2023-02-26T09:57:57;100081.09;;;2.51;61.96
32298;BME280;18782;48.984;8.548;2023-02-26T10:00:33;100082.28;;;2.43;62.03
32298;BME280;18782;48.984;8.548;2023-02-26T10:03:13;100085.44;;;2.39;63.02
32298;BME280;18782;48.984;8.548;2023-02-26T10:05:52;100087.53;;;2.31;62.76
32298;BME280;18782;48.984;8.548;2023-02-26T10:08:27;100083.13;;;2.28;63.26
32298;BME280;18782;48.984;8.548;2023-02-26T10:11:03;100078.25;;;2.31;63.19
32298;BME280;18782;48.984;8.548;2023-02-26T10:13:36;100081.59;;;2.30;63.07
32298;BME280;18782;48.984;8.548;2023-02-26T10:16:26;100078.97;;;2.44;63.50
32298;BME280;18782;48.984;8.548;2023-02-26T10:18:59;100078.16;;;2.45;63.26
32298;BME280;18782;48.984;8.548;2023-02-26T10:21:34;100083.19;;;2.58;63.48
32298;BME280;18782;48.984;8.548;2023-02-26T10:24:07;100090.22;;;2.62;63.55
32298;BME280;18782;48.984;8.548;2023-02-26T10:26:40;100094.59;;;2.65;63.20
32298;BME280;18782;48.984;8.548;2023-02-26T10:29:16;100083.38;;;2.61;62.36
32298;BME280;18782;48.984;8.548;2023-02-26T10:31:58;100093.72;;;2.64;62.19
32298;BME280;18782;48.984;8.548;2023-02-26T10:34:30;100092.50;;;2.57;62.17
32298;BME280;18782;48.984;8.548;2023-02-26T10:37:08;100104.59;;;2.61;62.92
32298;BME280;18782;48.984;8.548;2023-02-26T10:39:43;100088.38;;;3.19;83.46
32298;BME280;18782;48.984;8.548;2023-02-26T10:42:14;100100.75;;;2.98;67.03
32298;BME280;18782;48.984;8.548;2023-02-26T10:44:51;100101.25;;;2.92;61.80
32298;BME280;18782;48.984;8.548;2023-02-26T10:47:31;100100.56;;;2.95;61.89
32298;BME280;18782;48.984;8.548;2023-02-26T10:50:07;100106.84;;;2.86;61.44
32298;BME280;18782;48.984;8.548;2023-02-26T10:52:36;100107.38;;;2.81;61.20
32298;BME280;18782;48.984;8.548;2023-02-26T10:55:17;100103.88;;;2.79;61.31
32298;BME280;18782;48.984;8.548;2023-02-26T10:57:49;100105.97;;;2.71;60.71
32298;BME280;18782;48.984;8.548;2023-02-26T11:00:20;100104.75;;;2.79;60.58
32298;BME280;18782;48.984;8.548;2023-02-26T11:02:50;100106.50;;;2.80;61.17
32298;BME280;18782;48.984;8.548;2023-02-26T11:05:22;100108.09;;;2.78;61.28
32298;BME280;18782;48.984;8.548;2023-02-26T11:07:53;100109.59;;;2.75;61.33
32298;BME280;18782;48.984;8.548;2023-02-26T11:10:24;100109.16;;;2.82;62.73
32298;BME280;18782;48.984;8.548;2023-02-26T11:12:51;100112.31;;;2.93;61.47
32298;BME280;18782;48.984;8.548;2023-02-26T11:15:21;100112.66;;;2.99;60.89
32298;BME280;18782;48.984;8.548;2023-02-26T11:17:55;100111.06;;;3.30;61.61
32298;BME280;18782;48.984;8.548;2023-02-26T11:20:29;100116.56;;;3.23;61.24
32298;BME280;18782;48.984;8.548;2023-02-26T11:22:59;100117.03;;;3.16;60.37
32298;BME280;18782;48.984;8.548;2023-02-26T11:25:31;100113.16;;;3.08;59.95
32298;BME280;18782;48.984;8.548;2023-02-26T11:28:03;100126.53;;;3.04;60.66
32298;BME280;18782;48.984;8.548;2023-02-26T11:30:35;100119.84;;;2.91;61.43
32298;BME280;18782;48.984;8.548;2023-02-26T11:33:12;100122.63;;;2.81;61.07
32298;BME280;18782;48.984;8.548;2023-02-26T11:35:42;100127.44;;;2.76;62.87
32298;BME280;18782;48.984;8.548;2023-02-26T11:38:16;100114.75;;;2.76;62.51
32298;BME280;18782;48.984;8.548;2023-02-26T11:40:56;100121.22;;;2.71;64.11
32298;BME280;18782;48.984;8.548;2023-02-26T11:43:26;100117.53;;;2.66;64.88
32298;BME280;18782;48.984;8.548;2023-02-26T11:46:00;100122.63;;;2.51;64.79
32298;BME280;18782;48.984;8.548;2023-02-26T11:48:38;100129.13;;;2.61;64.93
32298;BME280;18782;48.984;8.548;2023-02-26T11:51:10;100118.78;;;2.58;65.53
32298;BME280;18782;48.984;8.548;2023-02-26T11:53:42;100122.72;;;2.68;65.87
32298;BME280;18782;48.984;8.548;2023-02-26T11:56:12;100135.09;;;2.61;64.33
32298;BME280;18782;48.984;8.548;2023-02-26T11:58:43;100134.03;;;2.58;65.43
32298;BME280;18782;48.984;8.548;2023-02-26T12:01:12;100130.75;;;2.60;65.26
32298;BME280;18782;48.984;8.548;2023-02-26T12:03:46;100143.63;;;2.49;65.46
32298;BME280;18782;48.984;8.548;2023-02-26T12:06:18;100141.69;;;2.45;65.50
32298;BME280;18782;48.984;8.548;2023-02-26T12:08:46;100134.47;;;2.51;65.75
32298;BME280;18782;48.984;8.548;2023-02-26T12:11:39;100125.59;;;2.59;65.05
32298;BME280;18782;48.984;8.548;2023-02-26T12:14:20;100133.41;;;2.62;64.50
32298;BME280;18782;48.984;8.548;2023-02-26T12:17:03;100123.88;;;2.73;67.33
32298;BME280;18782;48.984;8.548;2023-02-26T12:19:40;100122.63;;;2.81;64.15
32298;BME280;18782;48.984;8.548;2023-02-26T12:22:28;100128.00;;;3.00;63.53
32298;BME280;18782;48.984;8.548;2023-02-26T12:25:15;100123.88;;;3.17;62.91
32298;BME280;18782;48.984;8.548;2023-02-26T12:28:12;100126.47;;;3.33;62.97
32298;BME280;18782;48.984;8.548;2023-02-26T12:30:54;100124.50;;;3.59;61.54
32298;BME280;18782;48.984;8.548;2023-02-26T12:33:35;100122.78;;;3.74;62.14
32298;BME280;18782;48.984;8.548;2023-02-26T12:36:20;100130.06;;;3.83;60.92
32298;BME280;18782;48.984;8.548;2023-02-26T12:39:11;100124.25;;;3.85;61.30
32298;BME280;18782;48.984;8.548;2023-02-26T12:41:51;100129.34;;;3.85;60.70
32298;BME280;18782;48.984;8.548;2023-02-26T12:44:36;100133.81;;;3.89;59.84
32298;BME280;18782;48.984;8.548;2023-02-26T12:47:22;100132.88;;;3.87;62.08
32298;BME280;18782;48.984;8.548;2023-02-26T12:50:02;100123.16;;;3.97;64.40
32298;BME280;18782;48.984;8.548;2023-02-26T12:52:45;100129.75;;;3.93;63.87
32298;BME280;18782;48.984;8.548;2023-02-26T12:55:29;100126.22;;;3.75;59.85
32298;BME280;18782;48.984;8.548;2023-02-26T12:58:18;100132.03;;;3.72;59.74
32298;BME280;18782;48.984;8.548;2023-02-26T13:01:03;100133.81;;;4.06;70.85
32298;BME280;18782;48.984;8.548;2023-02-26T13:03:56;100131.47;;;4.25;60.44
32298;BME280;18782;48.984;8.548;2023-02-26T13:06:43;100136.25;;;4.19;58.60
32298;BME280;18782;48.984;8.548;2023-02-26T13:09:22;100133.38;;;4.13;57.60
32298;BME280;18782;48.984;8.548;2023-02-26T13:12:01;100127.00;;;4.05;57.00
32298;BME280;18782;48.984;8.548;2023-02-26T13:14:40;100125.06;;;4.17;57.43
32298;BME280;18782;48.984;8.548;2023-02-26T13:17:21;100129.16;;;4.30;57.34
32298;BME280;18782;48.984;8.548;2023-02-26T13:19:54;100126.03;;;4.52;55.65
32298;BME280;18782;48.984;8.548;2023-02-26T13:22:28;100121.91;;;4.70;55.63
32298;BME280;18782;48.984;8.548;2023-02-26T13:25:01;100131.09;;;4.84;54.55
32298;BME280;18782;48.984;8.548;2023-02-26T13:27:32;100134.16;;;4.95;55.04
32298;BME280;18782;48.984;8.548;2023-02-26T13:30:17;100133.97;;;4.74;53.61
32298;BME280;18782;48.984;8.548;2023-02-26T13:32:48;100136.06;;;4.49;53.27
32298;BME280;18782;48.984;8.548;2023-02-26T13:35:20;100132.41;;;4.43;53.93